Impacts TAF Board INFO
FOR SITUATIONAL AWARENESS. NOT TO BE USED FOR FLIGHT PLANNING PURPOSES.
IDs:

KCVG - Cincinnati Intl, KY, US

Issued at 1737 UTC 17 Dec 2017
Updated at 1917 UTC 17 Dec 2017
Potential Impact None Slight Moderate High
Time1852Z 17/20Z 17/21Z 17/22Z 17/23Z 18/00Z 18/01Z 18/02Z 18/03Z 18/04Z 18/05Z 18/06Z 18/07Z 18/08Z>>
Type OBS PRVL PRVL PRVL PRVL PRVL PRVL PRVL PRVL PRVL PRVL PRVL PRVL PRVL
VIS 10 >6 >6 >6 >6 >6 >6 >6 >6 >6 >6 >6 >6 >6
CIG 80 50 50 50 50 50 50 25 25 25 25 25 11 11
Cover OVC OVC OVC OVC OVC OVC OVC OVC OVC OVC OVC OVC OVC OVC
FltCat VFR VFR VFR VFR VFR VFR VFR MVFR MVFR MVFR MVFR MVFR MVFR MVFR
WX -- -RA -RA -RA -RA -RA -RA -- -- -- -- -- -DZ -DZ
WDir 200 200 200 200 200 200 200 190 190 190 190 190 210 210
WSpd 6 5 5 5 5 5 5 4 4 4 4 4 4 4
WGst -- -- -- -- -- -- -- -- -- -- -- -- -- --

Raw TAF
KCVG 171737Z 1718/1824 20005KT P6SM VCSH OVC070
  FM171900 20005KT P6SM -RA OVC050
  FM180200 19004KT P6SM OVC025
  FM180700 21004KT P6SM -DZ OVC011
  FM181000 22005KT P6SM -DZ OVC008
  FM181500 22005KT P6SM -DZ OVC012
  FM182000 23007KT P6SM OVC022


Raw METAR
KCVG 171852Z 20006KT 10SM BKN080 OVC085 08/01 A3011 RMK AO2 SLP199 T00780006
KCVG 171752Z 23007KT 10SM SCT070 OVC080 07/01 A3013 RMK AO2 SLP206 T00670006 10067 20028 55008
KCVG 171652Z 16006KT 10SM FEW070 OVC080 06/00 A3010 RMK AO2 PRESFR SLP193 T00610000

METAR Board
Radar Display
Forecast Discussion

FOR SITUATIONAL AWARENESS. NOT TO BE USED FOR FLIGHT PLANNING PURPOSES.